createdAt,value
2022-09-05T00:00:31.153Z,2.04
2022-09-05T00:01:33.923Z,1.86
2022-09-05T00:02:37.837Z,1.96
2022-09-05T00:03:41.498Z,2.13
2022-09-05T00:04:44.394Z,1.87
2022-09-05T00:06:01.994Z,2.02
2022-09-05T00:06:52.303Z,1.83
2022-09-05T00:07:59.375Z,2.05
2022-09-05T00:09:00.135Z,2.42
2022-09-05T00:10:03.270Z,2.02
2022-09-05T00:11:42.026Z,1.96
2022-09-05T00:12:12.442Z,2.03
2022-09-05T00:13:15.273Z,1.81
2022-09-05T00:14:18.045Z,2.27
2022-09-05T00:15:22.372Z,2.09
2022-09-05T00:16:25.477Z,2.05
2022-09-05T00:17:40.782Z,2.02
2022-09-05T00:24:17.472Z,1.83
2022-09-05T00:24:20.387Z,1.87
2022-09-05T00:24:22.209Z,1.95
2022-09-05T00:24:26.771Z,1.70
2022-09-05T00:24:28.937Z,1.87
2022-09-05T00:24:30.374Z,1.95
2022-09-05T00:26:06.872Z,1.70
2022-09-05T00:27:09.952Z,1.99
2022-09-05T00:28:26.287Z,1.78
2022-09-05T00:29:34.762Z,1.77
2022-09-05T00:31:51.611Z,1.87
2022-09-05T00:31:54.488Z,1.91
2022-09-05T00:32:30.550Z,1.95
2022-09-05T00:33:33.340Z,1.65
2022-09-05T00:34:46.990Z,1.96
2022-09-05T00:35:40.641Z,1.85
2022-09-05T00:36:43.500Z,1.82
2022-09-05T00:37:46.634Z,1.99
2022-09-05T00:38:49.246Z,1.76
2022-09-05T00:39:57.786Z,1.75
2022-09-05T00:40:56.330Z,1.91
2022-09-05T00:41:59.097Z,1.74
2022-09-05T00:43:02.282Z,1.71
2022-09-05T00:44:05.362Z,1.60
2022-09-05T00:45:14.477Z,2.02
2022-09-05T00:46:12.897Z,1.65
2022-09-05T00:47:15.840Z,1.89
2022-09-05T00:48:18.865Z,2.32
2022-09-05T00:50:40.425Z,2.00
2022-09-05T00:51:43.302Z,1.94
2022-09-05T00:52:51.740Z,1.82
2022-09-05T00:53:50.493Z,1.59
2022-09-05T00:54:53.370Z,1.84
2022-09-05T00:55:58.876Z,1.73
2022-09-05T00:57:00.755Z,1.73
2022-09-05T00:58:03.519Z,1.83
2022-09-05T00:59:06.502Z,1.59
2022-09-05T01:00:11.677Z,1.88
2022-09-05T01:01:21.010Z,1.74
2022-09-05T01:02:18.589Z,1.99
2022-09-05T01:03:21.593Z,1.89
2022-09-05T01:04:24.767Z,1.92
2022-09-05T01:05:27.465Z,1.95
2022-09-05T01:06:30.513Z,1.88
2022-09-05T01:07:33.803Z,1.92
2022-09-05T01:08:38.415Z,1.93
2022-09-05T01:09:41.603Z,2.15
2022-09-05T01:10:44.881Z,2.47
2022-09-05T01:11:47.854Z,1.82
2022-09-05T01:12:52.956Z,1.80
2022-09-05T01:13:55.449Z,1.76
2022-09-05T01:14:58.838Z,1.80
2022-09-05T01:16:02.010Z,1.95
2022-09-05T01:17:05.122Z,1.58
2022-09-05T01:18:08.180Z,1.65
2022-09-05T01:19:15.788Z,1.98
2022-09-05T01:20:18.933Z,1.80
2022-09-05T01:21:20.073Z,1.86
2022-09-05T01:22:22.953Z,1.88
2022-09-05T01:23:25.978Z,1.77
2022-09-05T01:24:28.806Z,2.12
2022-09-05T01:25:31.986Z,2.01
2022-09-05T01:26:35.889Z,1.97
2022-09-05T01:28:37.012Z,1.74
2022-09-05T01:29:15.202Z,1.77
2022-09-05T01:29:48.194Z,1.53
2022-09-05T01:30:51.544Z,1.47
2022-09-05T01:31:54.556Z,1.44
2022-09-05T01:32:57.634Z,1.66
2022-09-05T01:34:02.269Z,1.74
2022-09-05T01:35:05.336Z,1.70
2022-09-05T01:36:08.413Z,1.53
2022-09-05T01:37:32.714Z,1.09
2022-09-05T01:38:15.903Z,1.28
2022-09-05T01:40:11.394Z,1.48
2022-09-05T01:40:23.334Z,1.47
2022-09-05T01:41:26.249Z,1.51
2022-09-05T01:42:32.312Z,1.27
2022-09-05T01:43:35.602Z,1.49
2022-09-05T01:44:38.783Z,1.36
2022-09-05T01:45:42.085Z,1.48
2022-09-05T01:46:47.192Z,1.26
2022-09-05T01:47:50.474Z,1.22
2022-09-05T01:48:54.891Z,1.27
2022-09-05T01:50:00.759Z,1.49
2022-09-05T01:51:02.793Z,1.58
2022-09-05T01:52:07.707Z,1.52
2022-09-05T01:53:10.582Z,1.35
2022-09-05T01:54:24.517Z,1.56
2022-09-05T01:55:18.278Z,1.50
2022-09-05T01:56:21.353Z,1.48
2022-09-05T01:57:24.340Z,1.34
2022-09-05T01:58:27.318Z,1.45
2022-09-05T01:59:32.039Z,1.59
2022-09-05T02:00:35.312Z,1.41
2022-09-05T02:01:38.316Z,1.44
2022-09-05T02:02:41.264Z,1.65
2022-09-05T02:03:45.478Z,1.45
2022-09-05T02:04:48.451Z,1.40
2022-09-05T02:05:51.433Z,1.48
2022-09-05T02:06:54.202Z,1.41
2022-09-05T02:07:57.081Z,1.45
2022-09-05T02:09:00.064Z,1.56
2022-09-05T02:10:07.265Z,1.38
2022-09-05T02:11:07.131Z,1.71
2022-09-05T02:12:09.905Z,1.68
2022-09-05T02:13:13.291Z,1.57
2022-09-05T02:14:27.020Z,1.66
2022-09-05T02:15:20.208Z,1.63
2022-09-05T02:16:22.985Z,1.51
2022-09-05T02:17:46.358Z,1.88
2022-09-05T02:18:30.633Z,2.09
2022-09-05T02:19:33.303Z,1.82
2022-09-05T02:20:36.412Z,1.68
2022-09-05T02:21:56.752Z,1.72
2022-09-05T02:22:44.078Z,1.65
2022-09-05T02:23:47.774Z,1.52
2022-09-05T02:24:51.051Z,1.83
2022-09-05T02:26:01.490Z,1.36
2022-09-05T02:27:00.091Z,1.47
2022-09-05T02:28:05.714Z,1.49
2022-09-05T02:29:07.982Z,1.50
2022-09-05T02:30:11.078Z,1.57
2022-09-05T02:31:19.820Z,1.76
2022-09-05T02:32:19.266Z,1.69
2022-09-05T02:33:22.157Z,1.66
2022-09-05T02:34:25.017Z,1.38
2022-09-05T02:35:27.994Z,1.43
2022-09-05T02:36:31.075Z,1.44
2022-09-05T02:41:29.089Z,1.56
2022-09-05T02:45:03.549Z,1.35
2022-09-05T02:45:07.655Z,1.24
2022-09-05T02:45:07.733Z,1.59
2022-09-05T02:45:14.494Z,1.33
2022-09-05T02:45:20.116Z,1.55
2022-09-05T02:45:24.531Z,1.69
2022-09-05T02:45:25.421Z,1.59
2022-09-05T02:46:10.891Z,1.57
2022-09-05T02:47:13.748Z,1.56
2022-09-05T02:48:16.517Z,1.62
2022-09-05T02:51:45.045Z,1.38
2022-09-05T02:56:02.918Z,1.51
2022-09-05T02:57:27.800Z,1.37
2022-09-05T02:57:33.493Z,1.47
2022-09-05T02:57:35.593Z,1.42
2022-09-05T02:57:36.181Z,1.44
2022-09-05T02:57:46.686Z,1.61
2022-09-05T02:58:06.512Z,1.44
2022-09-05T02:58:07.638Z,1.50
2022-09-05T02:59:16.570Z,1.70
2022-09-05T03:01:25.088Z,1.47
2022-09-05T03:02:27.941Z,1.55
2022-09-05T03:03:39.262Z,2.08
2022-09-05T03:04:46.943Z,1.30
2022-09-05T03:05:51.576Z,1.30
2022-09-05T03:06:55.256Z,1.30
2022-09-05T03:07:58.030Z,1.44
2022-09-05T03:09:17.329Z,1.44
2022-09-05T03:10:05.105Z,1.59
2022-09-05T03:11:20.273Z,1.62
2022-09-05T03:12:29.096Z,1.72
2022-09-05T03:13:27.451Z,1.55
2022-09-05T03:14:37.114Z,1.46
2022-09-05T03:15:40.066Z,1.62
2022-09-05T03:16:54.986Z,1.64
2022-09-05T03:18:20.098Z,1.48
2022-09-05T03:19:02.821Z,1.61
2022-09-05T03:20:05.489Z,1.74
2022-09-05T03:21:14.822Z,1.55
2022-09-05T03:22:17.685Z,1.36
2022-09-05T03:23:22.509Z,1.32
2022-09-05T03:24:25.897Z,1.49
2022-09-05T03:25:28.971Z,1.51
2022-09-05T03:26:31.748Z,1.61
2022-09-05T03:27:35.233Z,1.45
2022-09-05T03:28:39.144Z,1.54
2022-09-05T03:29:42.219Z,1.55
2022-09-05T03:30:45.658Z,1.43
2022-09-05T03:31:49.088Z,1.63
2022-09-05T03:32:52.268Z,1.64
2022-09-05T03:33:55.875Z,1.48
2022-09-05T03:34:59.153Z,1.57
2022-09-05T03:36:02.840Z,1.45
2022-09-05T03:37:06.225Z,1.51
2022-09-05T03:38:09.408Z,1.62
2022-09-05T03:39:12.390Z,1.57
2022-09-05T03:40:16.828Z,1.55
2022-09-05T03:41:20.186Z,1.47
2022-09-05T03:42:27.919Z,1.50
2022-09-05T03:43:29.415Z,1.63
2022-09-05T03:44:32.698Z,1.81
2022-09-05T03:45:37.403Z,1.79
2022-09-05T03:46:41.121Z,1.66
2022-09-05T03:47:44.698Z,1.80
2022-09-05T03:48:48.085Z,1.75
2022-09-05T03:54:12.190Z,1.61
2022-09-05T03:57:08.214Z,1.39
2022-09-05T03:57:11.909Z,1.67
2022-09-05T03:57:16.514Z,1.59
2022-09-05T03:57:25.709Z,1.51
2022-09-05T03:57:25.711Z,1.46
2022-09-05T03:57:28.307Z,1.79
2022-09-05T03:57:41.757Z,1.57
2022-09-05T03:58:55.372Z,1.64
2022-09-05T03:59:34.623Z,1.74
2022-09-05T04:01:00.988Z,1.56
2022-09-05T04:04:14.269Z,1.57
2022-09-05T04:07:12.075Z,1.59
2022-09-05T04:08:08.950Z,1.81
2022-09-05T04:08:15.370Z,1.92
2022-09-05T04:08:18.258Z,1.82
2022-09-05T04:08:24.412Z,1.79
2022-09-05T04:08:38.603Z,1.66
2022-09-05T04:09:49.979Z,1.61
2022-09-05T04:10:37.157Z,1.41
2022-09-05T04:11:40.065Z,1.71
2022-09-05T04:12:49.507Z,2.07
2022-09-05T04:13:52.575Z,1.71
2022-09-05T04:14:55.343Z,1.82
2022-09-05T04:15:58.423Z,1.88
2022-09-05T04:17:04.133Z,1.80
2022-09-05T04:18:08.586Z,1.70
2022-09-05T04:19:14.519Z,1.43
2022-09-05T04:20:17.404Z,1.52
2022-09-05T04:21:20.472Z,1.68
2022-09-05T04:22:30.122Z,1.44
2022-09-05T04:23:32.980Z,1.82
2022-09-05T04:24:36.293Z,1.96
2022-09-05T04:25:40.782Z,1.65
2022-09-05T04:26:43.549Z,1.52
2022-09-05T04:27:49.199Z,1.91
2022-09-05T04:28:53.774Z,1.61
2022-09-05T04:29:59.958Z,1.47
2022-09-05T04:31:02.939Z,1.49
2022-09-05T04:32:17.995Z,1.47
2022-09-05T04:33:10.530Z,1.33
2022-09-05T04:34:13.505Z,1.52
2022-09-05T04:35:16.181Z,1.59
2022-09-05T04:36:19.055Z,1.56
2022-09-05T04:37:21.825Z,1.72
2022-09-05T04:38:25.566Z,1.91
2022-09-05T04:39:28.950Z,1.61
2022-09-05T04:40:33.047Z,1.78
2022-09-05T04:41:39.331Z,2.15
2022-09-05T04:42:40.913Z,2.19
2022-09-05T04:43:43.775Z,2.41
2022-09-05T04:44:46.863Z,1.82
2022-09-05T04:45:50.135Z,1.31
2022-09-05T04:46:53.323Z,1.39
2022-09-05T04:47:56.912Z,1.88
2022-09-05T04:49:02.054Z,1.36
2022-09-05T04:50:05.325Z,1.32
2022-09-05T04:51:12.806Z,1.42
2022-09-05T04:52:13.326Z,1.51
2022-09-05T04:53:17.642Z,1.53
2022-09-05T04:54:20.717Z,1.55
2022-09-05T04:55:23.702Z,1.73
2022-09-05T04:56:26.788Z,1.44
2022-09-05T04:57:29.957Z,1.65
2022-09-05T04:58:33.766Z,1.38
2022-09-05T05:03:26.153Z,1.45
2022-09-05T05:06:02.070Z,1.52
2022-09-05T05:06:05.028Z,1.67
2022-09-05T05:06:13.108Z,1.50
2022-09-05T05:06:15.942Z,1.55
2022-09-05T05:06:17.757Z,1.67
2022-09-05T05:06:36.774Z,1.35
2022-09-05T05:07:11.914Z,1.64
2022-09-05T05:08:15.208Z,1.67
2022-09-05T05:09:17.971Z,1.61
2022-09-05T05:11:11.545Z,1.52
2022-09-05T05:16:07.645Z,1.41
2022-09-05T05:17:55.062Z,1.50
2022-09-05T05:17:57.398Z,1.52
2022-09-05T05:17:57.583Z,1.52
2022-09-05T05:18:12.506Z,1.81
2022-09-05T05:18:12.789Z,1.48
2022-09-05T05:18:14.993Z,1.59
2022-09-05T05:19:07.127Z,1.37
2022-09-05T05:20:42.044Z,1.76
2022-09-05T05:22:31.881Z,1.79
2022-09-05T05:23:35.067Z,1.53
2022-09-05T05:24:38.057Z,1.43
2022-09-05T05:26:59.764Z,1.64
2022-09-05T05:28:02.639Z,1.72
2022-09-05T05:29:06.944Z,1.44
2022-09-05T05:30:21.905Z,1.77
2022-09-05T05:31:28.549Z,1.48
2022-09-05T05:32:46.053Z,1.74
2022-09-05T05:33:36.571Z,2.07
2022-09-05T05:34:45.328Z,1.79
2022-09-05T05:35:48.790Z,1.65
2022-09-05T05:37:07.425Z,1.78
2022-09-05T05:38:10.320Z,1.59
2022-09-05T05:39:13.581Z,1.61
2022-09-05T05:40:19.527Z,1.57
2022-09-05T05:41:34.602Z,1.55
2022-09-05T05:42:40.753Z,1.26
2022-09-05T05:43:46.462Z,1.44
2022-09-05T05:44:48.221Z,1.60
2022-09-05T05:45:51.966Z,1.70
2022-09-05T05:46:54.791Z,1.87
2022-09-05T05:47:57.887Z,2.02
2022-09-05T05:49:00.845Z,1.75
2022-09-05T05:50:03.930Z,1.98
2022-09-05T05:51:07.141Z,1.95
2022-09-05T05:52:09.880Z,1.94
2022-09-05T05:53:12.763Z,2.01
2022-09-05T05:54:17.060Z,1.86
2022-09-05T05:55:52.487Z,1.62
2022-09-05T05:56:24.146Z,1.89
2022-09-05T05:57:26.927Z,1.54
2022-09-05T05:58:32.907Z,1.69
2022-09-05T05:59:34.205Z,1.85
2022-09-05T06:00:37.083Z,1.81
2022-09-05T06:01:39.816Z,1.74
2022-09-05T06:02:42.730Z,1.78
2022-09-05T06:03:45.800Z,1.71
2022-09-05T06:04:48.879Z,1.75
2022-09-05T06:05:51.771Z,1.77
2022-09-05T06:06:55.041Z,1.62
2022-09-05T06:10:06.482Z,1.88
2022-09-05T06:12:05.610Z,1.78
2022-09-05T06:14:53.093Z,1.85
2022-09-05T06:14:57.129Z,1.84
2022-09-05T06:15:01.329Z,1.91
2022-09-05T06:15:03.669Z,2.03
2022-09-05T06:15:04.152Z,1.75
2022-09-05T06:15:29.042Z,1.88
2022-09-05T06:16:32.227Z,1.56
2022-09-05T06:17:34.944Z,1.65
2022-09-05T06:18:38.132Z,1.70
2022-09-05T06:19:58.295Z,1.67
2022-09-05T06:22:09.577Z,1.77
2022-09-05T06:22:11.422Z,1.69
2022-09-05T06:23:02.630Z,1.64
2022-09-05T06:24:05.510Z,1.38
2022-09-05T06:25:16.673Z,1.49
2022-09-05T06:26:12.490Z,1.54
2022-09-05T06:27:15.360Z,1.65
2022-09-05T06:28:20.056Z,1.61
2022-09-05T06:29:34.306Z,1.82
2022-09-05T06:30:32.688Z,1.55
2022-09-05T06:32:58.055Z,1.84
2022-09-05T06:34:29.076Z,1.66
2022-09-05T06:35:23.407Z,1.55
2022-09-05T06:36:29.352Z,1.89
2022-09-05T06:37:32.439Z,2.06
2022-09-05T06:38:35.104Z,1.71
2022-09-05T06:39:37.821Z,1.65
2022-09-05T06:40:42.083Z,1.52
2022-09-05T06:41:45.284Z,1.68
2022-09-05T06:42:48.445Z,2.10
2022-09-05T06:43:51.423Z,1.62
2022-09-05T06:44:56.169Z,1.93
2022-09-05T06:46:00.997Z,2.14
2022-09-05T06:47:33.486Z,1.94
2022-09-05T06:48:08.960Z,1.80
2022-09-05T06:49:32.392Z,2.22
2022-09-05T06:50:26.917Z,2.09
2022-09-05T06:51:20.756Z,2.20
2022-09-05T06:52:29.404Z,2.23
2022-09-05T06:53:30.035Z,2.25
2022-09-05T06:54:32.966Z,2.11
2022-09-05T06:55:37.691Z,2.27
2022-09-05T06:56:40.768Z,2.28
2022-09-05T06:57:44.527Z,2.58
2022-09-05T06:58:48.064Z,2.21
2022-09-05T06:59:50.932Z,2.81
2022-09-05T07:00:53.955Z,2.73
2022-09-05T07:02:01.241Z,2.55
2022-09-05T07:03:01.882Z,2.08
2022-09-05T07:04:27.393Z,2.36
2022-09-05T07:05:37.797Z,2.07
2022-09-05T07:06:19.774Z,2.52
2022-09-05T07:07:18.414Z,2.32
2022-09-05T07:08:36.297Z,2.12
2022-09-05T07:09:28.706Z,2.01
2022-09-05T07:10:45.470Z,2.12
2022-09-05T07:11:34.630Z,2.35
2022-09-05T07:12:37.501Z,2.24
2022-09-05T07:13:44.516Z,2.35
2022-09-05T07:14:44.910Z,2.35
2022-09-05T07:15:48.053Z,2.04
2022-09-05T07:16:50.793Z,2.12
2022-09-05T07:18:09.996Z,1.98
2022-09-05T07:19:02.620Z,2.21
2022-09-05T07:20:03.051Z,2.29
2022-09-05T07:21:17.738Z,2.57
2022-09-05T07:22:25.793Z,2.73
2022-09-05T07:23:49.333Z,2.54
2022-09-05T07:24:54.068Z,2.81
2022-09-05T07:25:26.374Z,2.76
2022-09-05T07:26:51.419Z,2.90
2022-09-05T07:27:32.797Z,2.84
2022-09-05T07:28:37.211Z,2.30
2022-09-05T07:29:40.296Z,2.49
2022-09-05T07:30:45.222Z,2.86
2022-09-05T07:31:48.263Z,2.85
2022-09-05T07:32:51.271Z,2.65
2022-09-05T07:33:54.448Z,2.52
2022-09-05T07:34:57.528Z,2.62
2022-09-05T07:36:00.728Z,2.65
2022-09-05T07:37:15.511Z,2.28
2022-09-05T07:38:08.103Z,2.66
2022-09-05T07:39:28.358Z,2.40
2022-09-05T07:40:26.316Z,2.37
2022-09-05T07:41:19.807Z,2.13
2022-09-05T07:42:22.572Z,2.44
2022-09-05T07:43:25.247Z,2.25
2022-09-05T07:44:27.906Z,2.25
2022-09-05T07:45:30.717Z,2.56
2022-09-05T07:46:33.786Z,2.60
2022-09-05T07:47:36.645Z,2.33
2022-09-05T07:48:39.305Z,2.10
2022-09-05T07:49:56.590Z,2.17
2022-09-05T07:56:34.715Z,2.29
2022-09-05T07:56:47.726Z,2.22
2022-09-05T07:56:51.145Z,2.40
2022-09-05T07:57:04.124Z,2.57
2022-09-05T07:57:05.169Z,2.63
2022-09-05T07:57:06.381Z,2.50
2022-09-05T07:57:31.744Z,2.51
2022-09-05T07:58:18.797Z,2.64
2022-09-05T07:59:27.406Z,2.41
2022-09-05T08:01:49.446Z,2.32
2022-09-05T08:04:10.759Z,2.55
2022-09-05T08:05:13.483Z,2.22
2022-09-05T08:06:48.020Z,2.39
2022-09-05T08:07:49.662Z,2.49
2022-09-05T08:08:26.450Z,2.42
2022-09-05T08:10:06.904Z,2.35
2022-09-05T08:11:23.491Z,2.39
2022-09-05T08:11:50.024Z,2.15
2022-09-05T08:13:23.773Z,2.07
2022-09-05T08:14:38.502Z,2.32
2022-09-05T08:15:14.135Z,2.34
2022-09-05T08:16:14.225Z,2.51
2022-09-05T08:17:17.606Z,2.34
2022-09-05T08:18:20.375Z,2.69
2022-09-05T08:19:23.147Z,2.53
2022-09-05T08:20:25.920Z,2.28
2022-09-05T08:21:28.693Z,2.53
2022-09-05T08:22:31.357Z,2.05
2022-09-05T08:23:34.235Z,2.21
2022-09-05T08:24:37.324Z,2.15
2022-09-05T08:25:57.252Z,2.05
2022-09-05T08:26:47.035Z,2.59
2022-09-05T08:27:49.528Z,2.63
2022-09-05T08:28:52.321Z,2.81
2022-09-05T08:30:22.597Z,2.28
2022-09-05T08:31:00.074Z,2.39
2022-09-05T08:32:03.069Z,2.37
2022-09-05T08:33:10.545Z,2.43
2022-09-05T08:34:10.969Z,2.35
2022-09-05T08:35:13.739Z,2.48
2022-09-05T08:36:16.613Z,2.61
2022-09-05T08:37:20.883Z,2.47
2022-09-05T08:38:23.953Z,2.67
2022-09-05T08:39:26.930Z,2.85
2022-09-05T08:40:29.773Z,2.92
2022-09-05T08:41:51.021Z,3.06
2022-09-05T08:42:37.689Z,3.00
2022-09-05T08:45:50.659Z,2.94
2022-09-05T08:46:42.972Z,2.51
2022-09-05T08:46:44.799Z,2.96
2022-09-05T08:46:54.858Z,2.75
2022-09-05T08:47:58.129Z,2.61
2022-09-05T08:49:09.731Z,2.36
2022-09-05T08:50:05.262Z,2.52
2022-09-05T08:51:09.579Z,2.36
2022-09-05T08:52:12.336Z,2.48
2022-09-05T08:53:32.941Z,2.33
2022-09-05T08:54:19.720Z,2.70
2022-09-05T08:55:22.399Z,2.31
2022-09-05T08:56:25.464Z,2.56
2022-09-05T08:57:28.241Z,2.79
2022-09-05T08:58:32.665Z,2.76
2022-09-05T08:59:35.418Z,2.26
2022-09-05T09:00:38.372Z,2.66
2022-09-05T09:02:13.752Z,2.37
2022-09-05T09:02:48.417Z,2.71
2022-09-05T09:03:51.821Z,2.51
2022-09-05T09:05:01.297Z,2.41
2022-09-05T09:06:14.023Z,2.47
2022-09-05T09:07:47.184Z,2.70
2022-09-05T09:08:07.094Z,2.65
2022-09-05T09:09:10.009Z,2.39
2022-09-05T09:10:12.898Z,2.32
2022-09-05T09:11:17.299Z,2.34
2022-09-05T09:12:19.960Z,2.92
2022-09-05T09:13:22.632Z,2.52
2022-09-05T09:14:31.189Z,2.82
2022-09-05T09:15:30.016Z,2.46
2022-09-05T09:16:32.514Z,2.68
2022-09-05T09:17:35.459Z,2.65
2022-09-05T09:18:38.136Z,2.99
2022-09-05T09:19:40.897Z,3.09
2022-09-05T09:20:45.337Z,3.19
2022-09-05T09:21:48.289Z,2.70
2022-09-05T09:22:51.690Z,2.80
2022-09-05T09:23:54.852Z,2.92
2022-09-05T09:25:15.890Z,3.32
2022-09-05T09:26:02.450Z,3.17
2022-09-05T09:27:05.521Z,2.52
2022-09-05T09:28:48.343Z,2.58
2022-09-05T09:29:13.321Z,2.96
2022-09-05T09:30:16.091Z,2.98
2022-09-05T09:31:19.268Z,3.03
2022-09-05T09:32:22.149Z,3.38
2022-09-05T09:33:27.278Z,3.33
2022-09-05T09:34:29.946Z,3.65
2022-09-05T09:35:32.620Z,3.38
2022-09-05T09:36:35.599Z,3.48
2022-09-05T09:37:50.496Z,3.38
2022-09-05T09:38:43.707Z,3.21
2022-09-05T09:39:46.413Z,3.45
2022-09-05T09:41:00.715Z,3.37
2022-09-05T09:41:53.860Z,3.41
2022-09-05T09:42:57.038Z,3.49
2022-09-05T09:44:00.115Z,3.18
2022-09-05T09:45:22.959Z,3.28
2022-09-05T09:46:07.675Z,2.82
2022-09-05T09:47:10.686Z,3.04
2022-09-05T09:48:13.667Z,3.09
2022-09-05T09:49:23.379Z,3.08
2022-09-05T09:50:21.253Z,3.15
2022-09-05T09:51:24.030Z,2.59
2022-09-05T09:52:26.800Z,2.88
2022-09-05T09:53:29.673Z,2.84
2022-09-05T09:54:34.090Z,2.91
2022-09-05T09:55:38.716Z,3.01
2022-09-05T09:56:41.777Z,2.96
2022-09-05T09:57:44.659Z,2.75
2022-09-05T09:58:47.941Z,3.38
2022-09-05T09:59:54.281Z,3.09
2022-09-05T10:00:55.740Z,2.84
2022-09-05T10:02:23.996Z,3.10
2022-09-05T10:05:58.930Z,2.94
2022-09-05T10:10:39.741Z,3.19
2022-09-05T10:10:40.108Z,2.61
2022-09-05T10:10:45.620Z,2.91
2022-09-05T10:10:50.235Z,2.94
2022-09-05T10:10:55.368Z,2.52
2022-09-05T10:10:56.273Z,3.09
2022-09-05T10:11:00.573Z,2.59
2022-09-05T10:11:56.814Z,3.24
2022-09-05T10:12:44.151Z,3.07
2022-09-05T10:13:50.100Z,3.06
2022-09-05T10:14:53.083Z,3.11
2022-09-05T10:15:56.285Z,3.14
2022-09-05T10:17:06.705Z,2.79
2022-09-05T10:18:10.910Z,2.81
2022-09-05T10:19:16.923Z,2.45
2022-09-05T10:21:38.593Z,2.60
2022-09-05T10:22:41.768Z,2.68
2022-09-05T10:23:44.851Z,2.51
2022-09-05T10:24:47.826Z,2.67
2022-09-05T10:25:50.497Z,2.42
2022-09-05T10:26:53.365Z,2.44
2022-09-05T10:27:56.451Z,2.64
2022-09-05T10:28:59.449Z,2.68
2022-09-05T10:30:03.573Z,2.97
2022-09-05T10:34:35.702Z,2.92
2022-09-05T10:35:05.001Z,2.63
2022-09-05T10:35:05.994Z,2.25
2022-09-05T10:35:14.791Z,2.55
2022-09-05T10:36:42.685Z,2.78
2022-09-05T10:37:48.448Z,2.73
2022-09-05T10:38:51.104Z,3.00
2022-09-05T10:40:00.373Z,2.88
2022-09-05T10:41:19.949Z,2.70
2022-09-05T10:42:07.403Z,2.74
2022-09-05T10:43:10.074Z,2.87
2022-09-05T10:44:15.718Z,2.47
2022-09-05T10:45:18.691Z,3.04
2022-09-05T10:46:49.466Z,2.95
2022-09-05T10:47:30.237Z,2.72
2022-09-05T10:48:32.947Z,2.38
2022-09-05T10:49:35.832Z,2.54
2022-09-05T10:50:39.004Z,2.54
2022-09-05T10:51:43.519Z,2.64
2022-09-05T10:52:48.029Z,2.83
2022-09-05T10:53:50.799Z,2.64
2022-09-05T10:54:57.557Z,2.73
2022-09-05T10:55:57.981Z,2.87
2022-09-05T10:57:00.761Z,3.22
2022-09-05T10:58:03.637Z,2.80
2022-09-05T11:02:16.401Z,2.83
2022-09-05T11:02:20.562Z,2.83
2022-09-05T11:02:22.183Z,2.87
2022-09-05T11:02:34.901Z,3.09
2022-09-05T11:03:23.974Z,3.15
2022-09-05T11:04:26.614Z,2.96
2022-09-05T11:05:30.499Z,3.06
2022-09-05T11:06:33.488Z,2.99
2022-09-05T11:07:36.270Z,3.02
2022-09-05T11:08:39.451Z,2.73
2022-09-05T11:09:42.619Z,2.65
2022-09-05T11:10:45.812Z,2.58
2022-09-05T11:11:49.807Z,2.71
2022-09-05T11:12:57.298Z,2.64
2022-09-05T11:13:57.718Z,2.46
2022-09-05T11:15:00.578Z,2.40
2022-09-05T11:16:06.101Z,2.73
2022-09-05T11:17:08.378Z,2.91
2022-09-05T11:18:11.458Z,3.12
2022-09-05T11:19:14.746Z,2.89
2022-09-05T11:20:22.314Z,2.42
2022-09-05T11:21:22.229Z,2.63
2022-09-05T11:22:25.208Z,2.69
2022-09-05T11:23:28.086Z,2.47
2022-09-05T11:24:30.851Z,2.57
2022-09-05T11:25:36.980Z,2.23
2022-09-05T11:26:38.143Z,2.29
2022-09-05T11:27:41.117Z,2.52
2022-09-05T11:28:59.972Z,2.22
2022-09-05T11:29:48.501Z,2.67
2022-09-05T11:30:51.529Z,2.54
2022-09-05T11:32:22.450Z,2.29
2022-09-05T11:36:23.642Z,2.15
2022-09-05T11:39:57.202Z,2.74
2022-09-05T11:39:57.508Z,2.61
2022-09-05T11:39:59.595Z,2.41
2022-09-05T11:39:59.919Z,2.56
2022-09-05T11:40:07.229Z,2.62
2022-09-05T11:40:10.151Z,2.29
2022-09-05T11:40:41.889Z,2.71
2022-09-05T11:41:34.561Z,2.76
2022-09-05T11:42:37.232Z,2.82
2022-09-05T11:43:40.319Z,2.79
2022-09-05T11:44:46.159Z,3.19
2022-09-05T11:45:51.628Z,2.89
2022-09-05T11:46:57.443Z,3.01
2022-09-05T11:48:01.849Z,2.96
2022-09-05T11:49:16.598Z,3.15
2022-09-05T11:50:31.363Z,3.06
2022-09-05T11:51:34.487Z,2.99
2022-09-05T11:52:37.239Z,3.37
2022-09-05T11:53:40.179Z,3.74
2022-09-05T11:56:02.416Z,3.78
2022-09-05T11:57:32.857Z,3.28
2022-09-05T11:58:44.273Z,3.27
2022-09-05T11:59:14.620Z,3.61
2022-09-05T12:00:32.674Z,3.71
2022-09-05T12:01:41.932Z,3.28
2022-09-05T12:02:38.578Z,3.20
2022-09-05T12:03:59.050Z,3.13
2022-09-05T12:04:46.554Z,2.88
2022-09-05T12:05:58.990Z,2.76
2022-09-05T12:06:55.228Z,2.86
2022-09-05T12:07:58.206Z,2.92
2022-09-05T12:09:00.978Z,2.77
2022-09-05T12:10:03.671Z,2.69
2022-09-05T12:11:06.730Z,3.03
2022-09-05T12:12:19.376Z,3.08
2022-09-05T12:13:14.625Z,2.86
2022-09-05T12:14:21.604Z,2.86
2022-09-05T12:15:24.083Z,2.96
2022-09-05T12:16:27.299Z,3.10
2022-09-05T12:17:35.532Z,2.49
2022-09-05T12:18:34.336Z,2.56
2022-09-05T12:19:37.607Z,3.05
2022-09-05T12:20:43.388Z,3.05
2022-09-05T12:21:44.796Z,3.19
2022-09-05T12:22:47.775Z,3.16
2022-09-05T12:24:11.592Z,3.21
2022-09-05T12:25:25.733Z,3.31
2022-09-05T12:27:38.396Z,2.60
2022-09-05T12:27:42.121Z,2.97
2022-09-05T12:28:28.647Z,2.63
2022-09-05T12:29:32.745Z,2.93
2022-09-05T12:30:21.002Z,2.98
2022-09-05T12:33:33.931Z,2.46
2022-09-05T12:34:05.298Z,2.51
2022-09-05T12:36:03.592Z,2.46
2022-09-05T12:36:06.664Z,2.41
2022-09-05T12:36:13.161Z,2.53
2022-09-05T12:40:15.765Z,2.46
2022-09-05T12:40:54.589Z,2.74
2022-09-05T12:40:57.773Z,2.59
2022-09-05T12:41:32.461Z,2.69
2022-09-05T12:41:43.499Z,2.56
2022-09-05T12:44:40.074Z,2.65
2022-09-05T12:44:42.229Z,2.60
2022-09-05T12:45:37.309Z,2.66
2022-09-05T12:46:52.257Z,2.75
2022-09-05T12:47:54.935Z,2.73
2022-09-05T12:49:07.060Z,2.48
2022-09-05T12:50:15.205Z,2.59
2022-09-05T12:51:45.167Z,2.65
2022-09-05T12:52:21.798Z,2.66
2022-09-05T12:54:57.171Z,2.95
2022-09-05T12:55:59.499Z,2.65
2022-09-05T13:02:27.823Z,2.59
2022-09-05T13:02:56.974Z,2.91
2022-09-05T13:02:58.281Z,2.87
2022-09-05T13:03:04.284Z,3.33
2022-09-05T13:03:12.331Z,3.20
2022-09-05T13:03:13.135Z,2.71
2022-09-05T13:04:16.560Z,3.00
2022-09-05T13:05:01.733Z,3.22
2022-09-05T13:06:03.188Z,2.89
2022-09-05T13:07:07.258Z,2.75
2022-09-05T13:08:10.318Z,2.46
2022-09-05T13:09:13.300Z,3.03
2022-09-05T13:13:10.333Z,2.58
2022-09-05T13:14:50.483Z,2.66
2022-09-05T13:14:54.758Z,2.85
2022-09-05T13:14:56.949Z,2.67
2022-09-05T13:15:02.403Z,2.65
2022-09-05T13:15:38.166Z,3.01
2022-09-05T13:16:40.906Z,2.69
2022-09-05T13:17:44.634Z,2.64
2022-09-05T13:18:59.965Z,3.02
2022-09-05T13:20:02.937Z,2.56
2022-09-05T13:21:05.703Z,2.94
2022-09-05T13:22:08.480Z,2.62
2022-09-05T13:23:11.249Z,2.56
2022-09-05T13:24:14.018Z,2.88
2022-09-05T13:25:16.803Z,3.32
2022-09-05T13:26:19.581Z,2.74
2022-09-05T13:27:22.447Z,2.91
2022-09-05T13:28:25.210Z,2.95
2022-09-05T13:29:27.987Z,3.03
2022-09-05T13:34:46.444Z,2.64
2022-09-05T13:37:59.865Z,2.52
2022-09-05T13:38:05.049Z,2.62
2022-09-05T13:38:08.308Z,2.67
2022-09-05T13:38:15.897Z,2.71
2022-09-05T13:38:17.741Z,2.53
2022-09-05T13:38:41.966Z,2.92
2022-09-05T13:39:11.736Z,2.68
2022-09-05T13:40:17.310Z,2.34
2022-09-05T13:41:27.052Z,2.24
2022-09-05T13:42:30.048Z,2.45
2022-09-05T13:43:38.840Z,2.23
2022-09-05T13:44:47.452Z,2.45
2022-09-05T13:45:50.222Z,2.31
2022-09-05T13:46:58.593Z,2.43
2022-09-05T13:47:59.806Z,2.39
2022-09-05T13:50:07.559Z,2.55
2022-09-05T13:51:11.150Z,2.37
2022-09-05T13:52:14.243Z,2.34
2022-09-05T13:53:17.000Z,2.51
2022-09-05T13:54:19.774Z,2.25
2022-09-05T13:55:22.643Z,2.12
2022-09-05T13:56:25.417Z,2.23
2022-09-05T13:58:57.151Z,1.74
2022-09-05T14:00:00.468Z,1.95
2022-09-05T14:01:06.399Z,2.16
2022-09-05T14:02:26.422Z,2.29
2022-09-05T14:03:31.683Z,2.09
2022-09-05T14:05:05.085Z,2.08
2022-09-05T14:05:28.713Z,2.17
2022-09-05T14:06:45.873Z,2.13
2022-09-05T14:07:50.989Z,2.30
2022-09-05T14:08:42.315Z,2.44
2022-09-05T14:09:44.973Z,2.16
2022-09-05T14:10:48.048Z,2.64
2022-09-05T14:11:51.141Z,1.95
2022-09-05T14:13:00.590Z,2.07
2022-09-05T14:13:58.625Z,2.25
2022-09-05T14:15:10.603Z,2.21
2022-09-05T14:16:06.112Z,2.14
2022-09-05T14:18:20.001Z,2.25
2022-09-05T14:19:18.231Z,2.16
2022-09-05T14:20:20.899Z,2.69
2022-09-05T14:21:24.989Z,2.48
2022-09-05T14:22:27.664Z,2.49
2022-09-05T14:23:31.726Z,2.82
2022-09-05T14:24:35.254Z,2.43
2022-09-05T14:25:38.863Z,2.43
2022-09-05T14:26:41.519Z,2.34
2022-09-05T14:27:44.289Z,2.50
2022-09-05T14:28:46.960Z,2.54
2022-09-05T14:29:49.881Z,2.52
2022-09-05T14:31:55.219Z,2.65
2022-09-05T14:37:39.897Z,2.44
2022-09-05T14:37:42.671Z,2.49
2022-09-05T14:37:43.462Z,2.48
2022-09-05T14:37:43.566Z,2.49